sensor_id;sensor_type;location;lat;lon;timestamp;pressure;altitude;pressure_sealevel;temperature;humidity
76074;BME280;64776;42.636;24.358;2023-07-31T00:01:54;89900.47;;;18.74;61.45
76074;BME280;64776;42.636;24.358;2023-07-31T00:04:56;89899.06;;;18.80;62.01
76074;BME280;64776;42.636;24.358;2023-07-31T00:07:57;89897.31;;;18.83;62.00
76074;BME280;64776;42.636;24.358;2023-07-31T00:10:57;89901.59;;;18.78;62.57
76074;BME280;64776;42.636;24.358;2023-07-31T00:13:58;89901.78;;;18.80;62.12
76074;BME280;64776;42.636;24.358;2023-07-31T00:16:59;89903.31;;;18.68;62.93
76074;BME280;64776;42.636;24.358;2023-07-31T00:20:02;89900.84;;;18.57;63.59
76074;BME280;64776;42.636;24.358;2023-07-31T00:23:05;89898.53;;;18.61;64.12
76074;BME280;64776;42.636;24.358;2023-07-31T00:26:06;89890.25;;;18.59;69.17
76074;BME280;64776;42.636;24.358;2023-07-31T00:29:08;89892.94;;;18.80;71.13
76074;BME280;64776;42.636;24.358;2023-07-31T00:32:08;89887.63;;;18.87;71.72
76074;BME280;64776;42.636;24.358;2023-07-31T00:35:11;89896.13;;;18.91;71.95
76074;BME280;64776;42.636;24.358;2023-07-31T00:38:11;89896.41;;;19.08;71.88
76074;BME280;64776;42.636;24.358;2023-07-31T00:41:12;89884.97;;;19.23;71.63
76074;BME280;64776;42.636;24.358;2023-07-31T00:44:13;89893.50;;;19.06;71.17
76074;BME280;64776;42.636;24.358;2023-07-31T00:47:14;89885.19;;;19.04;70.52
76074;BME280;64776;42.636;24.358;2023-07-31T00:50:17;89883.50;;;19.14;72.18
76074;BME280;64776;42.636;24.358;2023-07-31T00:53:18;89887.81;;;19.17;70.90
76074;BME280;64776;42.636;24.358;2023-07-31T00:56:19;89883.41;;;19.07;68.21
76074;BME280;64776;42.636;24.358;2023-07-31T00:59:20;89882.72;;;18.86;67.51
76074;BME280;64776;42.636;24.358;2023-07-31T01:02:21;89891.38;;;18.63;68.57
76074;BME280;64776;42.636;24.358;2023-07-31T01:05:28;89888.94;;;18.73;68.68
76074;BME280;64776;42.636;24.358;2023-07-31T01:08:34;89889.13;;;18.75;68.19
76074;BME280;64776;42.636;24.358;2023-07-31T01:11:43;89890.13;;;18.64;68.81
76074;BME280;64776;42.636;24.358;2023-07-31T01:14:55;89887.66;;;18.53;68.72
76074;BME280;64776;42.636;24.358;2023-07-31T01:18:02;89886.28;;;18.60;69.02
76074;BME280;64776;42.636;24.358;2023-07-31T01:21:17;89879.44;;;18.59;68.78
76074;BME280;64776;42.636;24.358;2023-07-31T01:24:25;89875.22;;;18.71;72.64
76074;BME280;64776;42.636;24.358;2023-07-31T01:27:35;89875.88;;;18.64;74.47
76074;BME280;64776;42.636;24.358;2023-07-31T01:30:41;89880.09;;;18.52;74.26
76074;BME280;64776;42.636;24.358;2023-07-31T01:33:44;89881.34;;;18.51;75.47
76074;BME280;64776;42.636;24.358;2023-07-31T01:36:45;89879.16;;;18.49;77.62
76074;BME280;64776;42.636;24.358;2023-07-31T01:39:46;89873.81;;;18.57;78.08
76074;BME280;64776;42.636;24.358;2023-07-31T01:42:48;89866.72;;;18.46;79.32
76074;BME280;64776;42.636;24.358;2023-07-31T01:45:49;89869.13;;;18.37;81.00
76074;BME280;64776;42.636;24.358;2023-07-31T01:48:51;89864.44;;;18.17;82.23
76074;BME280;64776;42.636;24.358;2023-07-31T01:51:51;89856.47;;;18.11;83.25
76074;BME280;64776;42.636;24.358;2023-07-31T01:54:52;89847.81;;;18.13;83.51
76074;BME280;64776;42.636;24.358;2023-07-31T01:57:54;89843.59;;;18.04;83.14
76074;BME280;64776;42.636;24.358;2023-07-31T02:00:55;89841.94;;;18.01;84.42
76074;BME280;64776;42.636;24.358;2023-07-31T02:03:56;89840.66;;;18.15;84.02
76074;BME280;64776;42.636;24.358;2023-07-31T02:06:56;89842.81;;;18.17;84.03
76074;BME280;64776;42.636;24.358;2023-07-31T02:09:57;89840.84;;;18.17;83.92
76074;BME280;64776;42.636;24.358;2023-07-31T02:12:59;89832.84;;;18.12;84.55
76074;BME280;64776;42.636;24.358;2023-07-31T02:16:00;89835.41;;;17.97;85.17
76074;BME280;64776;42.636;24.358;2023-07-31T02:19:01;89834.31;;;17.79;85.84
76074;BME280;64776;42.636;24.358;2023-07-31T02:22:02;89830.88;;;17.78;86.02
76074;BME280;64776;42.636;24.358;2023-07-31T02:25:03;89822.38;;;17.74;86.38
76074;BME280;64776;42.636;24.358;2023-07-31T02:28:05;89819.63;;;17.67;86.83
76074;BME280;64776;42.636;24.358;2023-07-31T02:31:06;89816.34;;;17.81;86.09
76074;BME280;64776;42.636;24.358;2023-07-31T02:34:07;89825.06;;;17.87;85.55
76074;BME280;64776;42.636;24.358;2023-07-31T02:37:08;89821.53;;;17.93;85.90
76074;BME280;64776;42.636;24.358;2023-07-31T02:40:09;89823.75;;;18.02;85.35
76074;BME280;64776;42.636;24.358;2023-07-31T02:43:11;89829.88;;;18.02;85.25
76074;BME280;64776;42.636;24.358;2023-07-31T02:46:12;89842.78;;;17.96;85.36
76074;BME280;64776;42.636;24.358;2023-07-31T02:49:13;89843.22;;;17.87;86.03
76074;BME280;64776;42.636;24.358;2023-07-31T02:52:14;89849.31;;;18.01;85.97
76074;BME280;64776;42.636;24.358;2023-07-31T02:55:15;89855.66;;;18.03;86.29
76074;BME280;64776;42.636;24.358;2023-07-31T02:58:17;89860.75;;;17.94;86.65
76074;BME280;64776;42.636;24.358;2023-07-31T03:01:17;89856.97;;;17.76;87.29
76074;BME280;64776;42.636;24.358;2023-07-31T03:04:18;89863.41;;;17.73;87.10
76074;BME280;64776;42.636;24.358;2023-07-31T03:07:19;89874.28;;;17.80;86.84
76074;BME280;64776;42.636;24.358;2023-07-31T03:10:20;89868.84;;;17.94;86.62
76074;BME280;64776;42.636;24.358;2023-07-31T03:13:23;89868.84;;;17.94;86.24
76074;BME280;64776;42.636;24.358;2023-07-31T03:16:24;89875.81;;;17.89;87.30
76074;BME280;64776;42.636;24.358;2023-07-31T03:19:24;89867.72;;;17.89;87.08
76074;BME280;64776;42.636;24.358;2023-07-31T03:22:25;89865.69;;;17.69;87.11
76074;BME280;64776;42.636;24.358;2023-07-31T03:25:27;89872.97;;;17.61;87.98
76074;BME280;64776;42.636;24.358;2023-07-31T03:28:29;89872.97;;;17.74;87.80
76074;BME280;64776;42.636;24.358;2023-07-31T03:31:30;89872.34;;;17.68;87.65
76074;BME280;64776;42.636;24.358;2023-07-31T03:34:31;89880.72;;;17.77;87.67
76074;BME280;64776;42.636;24.358;2023-07-31T03:37:32;89876.38;;;17.74;87.45
76074;BME280;64776;42.636;24.358;2023-07-31T03:40:33;89877.00;;;17.67;87.37
76074;BME280;64776;42.636;24.358;2023-07-31T03:43:35;89870.34;;;17.68;87.28
76074;BME280;64776;42.636;24.358;2023-07-31T03:46:36;89886.47;;;17.61;87.88
76074;BME280;64776;42.636;24.358;2023-07-31T03:49:36;89885.22;;;17.49;88.02
76074;BME280;64776;42.636;24.358;2023-07-31T03:52:37;89877.41;;;17.19;89.61
76074;BME280;64776;42.636;24.358;2023-07-31T03:55:38;89884.06;;;17.05;90.90
76074;BME280;64776;42.636;24.358;2023-07-31T03:58:40;89878.25;;;17.01;91.70
76074;BME280;64776;42.636;24.358;2023-07-31T04:01:41;89888.41;;;16.95;92.18
76074;BME280;64776;42.636;24.358;2023-07-31T04:04:42;89889.00;;;16.88;93.12
76074;BME280;64776;42.636;24.358;2023-07-31T04:07:42;89888.81;;;16.99;92.74
76074;BME280;64776;42.636;24.358;2023-07-31T04:10:43;89887.19;;;16.96;92.64
76074;BME280;64776;42.636;24.358;2023-07-31T04:13:45;89893.09;;;17.07;92.65
76074;BME280;64776;42.636;24.358;2023-07-31T04:16:46;89893.41;;;17.04;92.10
76074;BME280;64776;42.636;24.358;2023-07-31T04:19:47;89889.97;;;17.03;91.92
76074;BME280;64776;42.636;24.358;2023-07-31T04:22:48;89894.44;;;17.01;92.42
76074;BME280;64776;42.636;24.358;2023-07-31T04:25:49;89884.91;;;17.00;92.51
76074;BME280;64776;42.636;24.358;2023-07-31T04:28:51;89877.84;;;16.97;92.38
76074;BME280;64776;42.636;24.358;2023-07-31T04:31:52;89888.31;;;17.00;91.68
76074;BME280;64776;42.636;24.358;2023-07-31T04:34:53;89882.19;;;17.13;91.41
76074;BME280;64776;42.636;24.358;2023-07-31T04:37:54;89887.16;;;17.09;91.61
76074;BME280;64776;42.636;24.358;2023-07-31T04:40:55;89890.19;;;17.05;92.18
76074;BME280;64776;42.636;24.358;2023-07-31T04:43:57;89892.78;;;17.11;92.33
76074;BME280;64776;42.636;24.358;2023-07-31T04:46:57;89897.75;;;17.20;92.48
76074;BME280;64776;42.636;24.358;2023-07-31T04:49:58;89893.19;;;17.15;92.38
76074;BME280;64776;42.636;24.358;2023-07-31T04:52:59;89889.97;;;17.30;92.02
76074;BME280;64776;42.636;24.358;2023-07-31T04:56:00;89897.34;;;17.29;92.16
76074;BME280;64776;42.636;24.358;2023-07-31T04:59:02;89895.91;;;17.28;91.53
76074;BME280;64776;42.636;24.358;2023-07-31T05:02:03;89897.66;;;17.26;90.73
76074;BME280;64776;42.636;24.358;2023-07-31T05:05:04;89896.31;;;17.32;89.04
76074;BME280;64776;42.636;24.358;2023-07-31T05:08:05;89892.88;;;17.32;87.96
76074;BME280;64776;42.636;24.358;2023-07-31T05:11:06;89891.38;;;17.49;88.20
76074;BME280;64776;42.636;24.358;2023-07-31T05:14:09;89895.09;;;17.59;86.30
76074;BME280;64776;42.636;24.358;2023-07-31T05:17:09;89884.38;;;17.67;86.10
76074;BME280;64776;42.636;24.358;2023-07-31T05:20:11;89879.03;;;17.87;86.02
76074;BME280;64776;42.636;24.358;2023-07-31T05:23:12;89880.47;;;18.02;87.00
76074;BME280;64776;42.636;24.358;2023-07-31T05:26:12;89878.31;;;18.21;85.77
76074;BME280;64776;42.636;24.358;2023-07-31T05:29:15;89881.88;;;18.36;83.88
76074;BME280;64776;42.636;24.358;2023-07-31T05:32:15;89885.38;;;18.57;83.78
76074;BME280;64776;42.636;24.358;2023-07-31T05:35:16;89883.84;;;18.90;80.82
76074;BME280;64776;42.636;24.358;2023-07-31T05:38:17;89882.66;;;18.99;81.65
76074;BME280;64776;42.636;24.358;2023-07-31T05:41:18;89881.91;;;18.98;79.72
76074;BME280;64776;42.636;24.358;2023-07-31T05:44:20;89888.41;;;18.95;78.13
76074;BME280;64776;42.636;24.358;2023-07-31T05:47:21;89881.41;;;19.00;77.82
76074;BME280;64776;42.636;24.358;2023-07-31T05:50:21;89883.00;;;19.23;78.76
76074;BME280;64776;42.636;24.358;2023-07-31T05:53:22;89881.41;;;19.28;76.86
76074;BME280;64776;42.636;24.358;2023-07-31T05:56:23;89882.44;;;19.45;76.15
76074;BME280;64776;42.636;24.358;2023-07-31T05:59:25;89890.16;;;19.41;76.61
76074;BME280;64776;42.636;24.358;2023-07-31T06:02:26;89888.00;;;19.40;76.63
76074;BME280;64776;42.636;24.358;2023-07-31T06:05:27;89889.50;;;19.48;75.95
76074;BME280;64776;42.636;24.358;2023-07-31T06:08:28;89879.97;;;19.55;74.76
76074;BME280;64776;42.636;24.358;2023-07-31T06:11:28;89878.75;;;19.64;74.90
76074;BME280;64776;42.636;24.358;2023-07-31T06:14:31;89881.72;;;19.81;74.76
76074;BME280;64776;42.636;24.358;2023-07-31T06:17:31;89873.56;;;19.73;73.95
76074;BME280;64776;42.636;24.358;2023-07-31T06:20:32;89883.34;;;19.76;75.10
76074;BME280;64776;42.636;24.358;2023-07-31T06:23:33;89878.97;;;20.16;72.60
76074;BME280;64776;42.636;24.358;2023-07-31T06:26:34;89871.25;;;20.20;71.90
76074;BME280;64776;42.636;24.358;2023-07-31T06:29:36;89872.25;;;20.10;71.73
76074;BME280;64776;42.636;24.358;2023-07-31T06:32:37;89876.13;;;20.22;71.27
76074;BME280;64776;42.636;24.358;2023-07-31T06:35:38;89877.59;;;20.31;71.68
76074;BME280;64776;42.636;24.358;2023-07-31T06:38:39;89871.16;;;20.56;70.82
76074;BME280;64776;42.636;24.358;2023-07-31T06:41:40;89872.94;;;20.61;68.53
76074;BME280;64776;42.636;24.358;2023-07-31T06:44:42;89876.91;;;20.53;67.71
76074;BME280;64776;42.636;24.358;2023-07-31T06:47:42;89871.47;;;20.45;68.99
76074;BME280;64776;42.636;24.358;2023-07-31T06:50:44;89882.63;;;20.26;69.14
76074;BME280;64776;42.636;24.358;2023-07-31T06:53:45;89884.69;;;20.56;69.43
76074;BME280;64776;42.636;24.358;2023-07-31T06:56:47;89888.16;;;20.79;67.09
76074;BME280;64776;42.636;24.358;2023-07-31T06:59:49;89893.03;;;20.96;66.83
76074;BME280;64776;42.636;24.358;2023-07-31T07:02:50;89888.91;;;21.02;66.84
76074;BME280;64776;42.636;24.358;2023-07-31T07:05:51;89892.88;;;20.79;66.54
76074;BME280;64776;42.636;24.358;2023-07-31T07:08:52;89889.28;;;21.06;67.10
76074;BME280;64776;42.636;24.358;2023-07-31T07:11:52;89888.16;;;21.55;66.25
76074;BME280;64776;42.636;24.358;2023-07-31T07:14:55;89896.78;;;21.99;64.45
76074;BME280;64776;42.636;24.358;2023-07-31T07:17:55;89898.59;;;21.96;62.06
76074;BME280;64776;42.636;24.358;2023-07-31T07:20:56;89903.78;;;22.17;62.71
76074;BME280;64776;42.636;24.358;2023-07-31T07:23:57;89902.66;;;22.20;63.18
76074;BME280;64776;42.636;24.358;2023-07-31T07:26:58;89913.03;;;22.06;63.22
76074;BME280;64776;42.636;24.358;2023-07-31T07:30:00;89916.97;;;22.20;63.27
76074;BME280;64776;42.636;24.358;2023-07-31T07:33:01;89921.97;;;22.39;61.88
76074;BME280;64776;42.636;24.358;2023-07-31T07:36:02;89919.56;;;22.11;63.01
76074;BME280;64776;42.636;24.358;2023-07-31T07:39:03;89916.72;;;21.78;63.52
76074;BME280;64776;42.636;24.358;2023-07-31T07:42:04;89920.09;;;22.09;63.63
76074;BME280;64776;42.636;24.358;2023-07-31T07:45:07;89921.75;;;22.52;62.24
76074;BME280;64776;42.636;24.358;2023-07-31T07:48:08;89920.88;;;22.42;61.78
76074;BME280;64776;42.636;24.358;2023-07-31T07:51:10;89915.78;;;22.46;61.97
76074;BME280;64776;42.636;24.358;2023-07-31T07:54:11;89914.03;;;22.33;61.57
76074;BME280;64776;42.636;24.358;2023-07-31T07:57:12;89916.97;;;22.20;61.84
76074;BME280;64776;42.636;24.358;2023-07-31T08:00:15;89927.34;;;22.61;61.25
76074;BME280;64776;42.636;24.358;2023-07-31T08:03:16;89926.56;;;23.01;61.02
76074;BME280;64776;42.636;24.358;2023-07-31T08:06:16;89927.56;;;23.13;59.16
76074;BME280;64776;42.636;24.358;2023-07-31T08:09:18;89927.41;;;23.11;60.08
76074;BME280;64776;42.636;24.358;2023-07-31T08:12:19;89917.81;;;22.78;60.87
76074;BME280;64776;42.636;24.358;2023-07-31T08:15:21;89931.34;;;22.06;63.63
76074;BME280;64776;42.636;24.358;2023-07-31T08:18:22;89917.91;;;22.62;63.14
76074;BME280;64776;42.636;24.358;2023-07-31T08:21:22;89913.22;;;22.88;61.71
76074;BME280;64776;42.636;24.358;2023-07-31T08:24:23;89925.44;;;22.79;61.79
76074;BME280;64776;42.636;24.358;2023-07-31T08:27:24;89926.78;;;22.95;59.62
76074;BME280;64776;42.636;24.358;2023-07-31T08:30:26;89918.63;;;22.95;59.47
76074;BME280;64776;42.636;24.358;2023-07-31T08:33:27;89920.53;;;23.10;60.01
76074;BME280;64776;42.636;24.358;2023-07-31T08:36:28;89915.09;;;23.10;58.93
76074;BME280;64776;42.636;24.358;2023-07-31T08:39:29;89926.59;;;22.69;57.24
76074;BME280;64776;42.636;24.358;2023-07-31T08:42:29;89929.22;;;22.44;57.67
76074;BME280;64776;42.636;24.358;2023-07-31T08:45:33;89921.44;;;22.80;58.61
76074;BME280;64776;42.636;24.358;2023-07-31T08:48:35;89928.94;;;22.97;56.94
76074;BME280;64776;42.636;24.358;2023-07-31T08:51:37;89926.34;;;23.06;55.99
76074;BME280;64776;42.636;24.358;2023-07-31T08:54:39;89931.91;;;22.51;57.58
76074;BME280;64776;42.636;24.358;2023-07-31T08:57:40;89928.19;;;22.72;58.20
76074;BME280;64776;42.636;24.358;2023-07-31T09:00:45;89918.19;;;23.06;56.63
76074;BME280;64776;42.636;24.358;2023-07-31T09:03:47;89920.31;;;23.82;54.75
76074;BME280;64776;42.636;24.358;2023-07-31T09:06:48;89929.03;;;23.14;53.73
76074;BME280;64776;42.636;24.358;2023-07-31T09:09:49;89930.75;;;23.02;53.41
76074;BME280;64776;42.636;24.358;2023-07-31T09:12:51;89928.44;;;22.91;52.43
76074;BME280;64776;42.636;24.358;2023-07-31T09:15:53;89938.16;;;22.77;52.61
76074;BME280;64776;42.636;24.358;2023-07-31T09:18:55;89944.91;;;23.25;51.81
76074;BME280;64776;42.636;24.358;2023-07-31T09:21:56;89939.78;;;23.04;51.74
76074;BME280;64776;42.636;24.358;2023-07-31T09:25:07;89946.88;;;23.32;51.96
76074;BME280;64776;42.636;24.358;2023-07-31T09:28:14;89943.09;;;23.52;51.86
76074;BME280;64776;42.636;24.358;2023-07-31T09:31:31;89935.47;;;23.75;49.60
76074;BME280;64776;42.636;24.358;2023-07-31T09:34:37;89929.31;;;23.92;49.74
76074;BME280;64776;42.636;24.358;2023-07-31T09:37:38;89923.94;;;23.84;50.88
76074;BME280;64776;42.636;24.358;2023-07-31T09:40:40;89922.66;;;24.02;51.26
76074;BME280;64776;42.636;24.358;2023-07-31T09:43:41;89926.38;;;24.32;49.73
76074;BME280;64776;42.636;24.358;2023-07-31T09:46:54;89933.91;;;23.65;50.38
76074;BME280;64776;42.636;24.358;2023-07-31T09:49:55;89928.03;;;23.26;51.17
76074;BME280;64776;42.636;24.358;2023-07-31T09:52:56;89936.63;;;22.91;52.54
76074;BME280;64776;42.636;24.358;2023-07-31T09:55:58;89929.72;;;22.90;50.68
76074;BME280;64776;42.636;24.358;2023-07-31T09:58:59;89929.94;;;23.41;50.57
76074;BME280;64776;42.636;24.358;2023-07-31T10:02:02;89932.16;;;23.77;50.90
76074;BME280;64776;42.636;24.358;2023-07-31T10:05:04;89939.22;;;23.38;49.97
76074;BME280;64776;42.636;24.358;2023-07-31T10:08:07;89940.78;;;23.90;49.50
76074;BME280;64776;42.636;24.358;2023-07-31T10:11:09;89938.03;;;23.90;48.88
76074;BME280;64776;42.636;24.358;2023-07-31T10:14:11;89940.22;;;23.92;49.06
76074;BME280;64776;42.636;24.358;2023-07-31T10:17:15;89947.53;;;24.06;48.14
76074;BME280;64776;42.636;24.358;2023-07-31T10:20:17;89943.34;;;24.05;48.54
76074;BME280;64776;42.636;24.358;2023-07-31T10:23:18;89941.88;;;23.87;48.47
76074;BME280;64776;42.636;24.358;2023-07-31T10:26:20;89940.22;;;23.92;48.89
76074;BME280;64776;42.636;24.358;2023-07-31T10:29:24;89940.47;;;24.03;48.61
76074;BME280;64776;42.636;24.358;2023-07-31T10:32:27;89948.66;;;24.03;48.93
76074;BME280;64776;42.636;24.358;2023-07-31T10:35:28;89946.31;;;24.00;47.55
76074;BME280;64776;42.636;24.358;2023-07-31T10:38:29;89942.03;;;23.89;47.67
76074;BME280;64776;42.636;24.358;2023-07-31T10:41:30;89932.94;;;23.53;49.51
76074;BME280;64776;42.636;24.358;2023-07-31T10:44:31;89925.88;;;23.50;49.16
76074;BME280;64776;42.636;24.358;2023-07-31T10:47:38;89929.06;;;23.97;48.88
76074;BME280;64776;42.636;24.358;2023-07-31T10:50:46;89907.47;;;24.60;47.28
76074;BME280;64776;42.636;24.358;2023-07-31T10:53:47;89912.00;;;25.28;45.55
76074;BME280;64776;42.636;24.358;2023-07-31T10:56:50;89913.13;;;25.25;45.96
76074;BME280;64776;42.636;24.358;2023-07-31T10:59:51;89917.84;;;25.42;46.24
76074;BME280;64776;42.636;24.358;2023-07-31T11:03:01;89913.56;;;25.58;45.16
76074;BME280;64776;42.636;24.358;2023-07-31T11:06:02;89908.25;;;26.25;45.16
76074;BME280;64776;42.636;24.358;2023-07-31T11:09:02;89908.06;;;26.90;42.82
76074;BME280;64776;42.636;24.358;2023-07-31T11:12:04;89906.47;;;26.01;43.39
76074;BME280;64776;42.636;24.358;2023-07-31T11:15:05;89904.84;;;25.69;43.27
76074;BME280;64776;42.636;24.358;2023-07-31T11:18:08;89905.09;;;25.27;44.01
76074;BME280;64776;42.636;24.358;2023-07-31T11:21:12;89910.16;;;25.04;44.08
76074;BME280;64776;42.636;24.358;2023-07-31T11:24:13;89908.38;;;24.46;45.19
76074;BME280;64776;42.636;24.358;2023-07-31T11:27:14;89903.44;;;24.78;44.64
76074;BME280;64776;42.636;24.358;2023-07-31T11:30:15;89890.13;;;25.55;43.08
76074;BME280;64776;42.636;24.358;2023-07-31T11:33:20;89894.13;;;25.54;42.87
76074;BME280;64776;42.636;24.358;2023-07-31T11:36:21;89883.41;;;25.84;42.84
76074;BME280;64776;42.636;24.358;2023-07-31T11:39:22;89878.56;;;26.31;42.47
76074;BME280;64776;42.636;24.358;2023-07-31T11:42:22;89876.28;;;26.37;42.46
76074;BME280;64776;42.636;24.358;2023-07-31T11:45:25;89887.22;;;26.08;42.38
76074;BME280;64776;42.636;24.358;2023-07-31T11:48:29;89887.78;;;25.42;43.19
76074;BME280;64776;42.636;24.358;2023-07-31T11:51:31;89884.28;;;25.32;43.67
76074;BME280;64776;42.636;24.358;2023-07-31T11:54:32;89896.38;;;24.75;44.34
76074;BME280;64776;42.636;24.358;2023-07-31T11:57:33;89890.16;;;25.28;46.06
76074;BME280;64776;42.636;24.358;2023-07-31T12:00:34;89878.81;;;25.77;43.82
76074;BME280;64776;42.636;24.358;2023-07-31T12:03:38;89881.75;;;26.18;43.24
76074;BME280;64776;42.636;24.358;2023-07-31T12:06:39;89877.56;;;26.36;41.98
76074;BME280;64776;42.636;24.358;2023-07-31T12:09:50;89871.97;;;26.15;42.50
76074;BME280;64776;42.636;24.358;2023-07-31T12:13:00;89867.91;;;26.35;40.96
76074;BME280;64776;42.636;24.358;2023-07-31T12:16:02;89873.22;;;26.04;42.10
76074;BME280;64776;42.636;24.358;2023-07-31T12:19:07;89868.44;;;25.66;44.12
76074;BME280;64776;42.636;24.358;2023-07-31T12:22:11;89873.19;;;25.75;42.53
76074;BME280;64776;42.636;24.358;2023-07-31T12:25:15;89861.13;;;25.88;42.74
76074;BME280;64776;42.636;24.358;2023-07-31T12:28:22;89862.03;;;26.10;42.50
76074;BME280;64776;42.636;24.358;2023-07-31T12:31:23;89860.28;;;26.05;41.67
76074;BME280;64776;42.636;24.358;2023-07-31T12:34:25;89853.91;;;25.93;42.28
76074;BME280;64776;42.636;24.358;2023-07-31T12:37:26;89855.41;;;26.22;41.79
76074;BME280;64776;42.636;24.358;2023-07-31T12:40:27;89859.28;;;26.48;42.68
76074;BME280;64776;42.636;24.358;2023-07-31T12:43:27;89851.22;;;27.00;39.80
76074;BME280;64776;42.636;24.358;2023-07-31T12:46:28;89848.72;;;26.73;41.40
76074;BME280;64776;42.636;24.358;2023-07-31T12:49:31;89843.38;;;26.75;39.66
76074;BME280;64776;42.636;24.358;2023-07-31T12:52:31;89835.69;;;26.93;40.20
76074;BME280;64776;42.636;24.358;2023-07-31T12:55:33;89828.22;;;26.93;39.92
76074;BME280;64776;42.636;24.358;2023-07-31T12:58:34;89827.25;;;27.50;39.05
76074;BME280;64776;42.636;24.358;2023-07-31T13:01:35;89837.41;;;27.38;39.05
76074;BME280;64776;42.636;24.358;2023-07-31T13:04:37;89825.84;;;27.09;37.59
76074;BME280;64776;42.636;24.358;2023-07-31T13:07:38;89815.66;;;26.90;38.58
76074;BME280;64776;42.636;24.358;2023-07-31T13:10:38;89813.00;;;26.61;39.46
76074;BME280;64776;42.636;24.358;2023-07-31T13:13:39;89813.06;;;26.92;39.69
76074;BME280;64776;42.636;24.358;2023-07-31T13:16:40;89823.97;;;27.11;38.89
76074;BME280;64776;42.636;24.358;2023-07-31T13:19:43;89810.97;;;26.72;38.35
76074;BME280;64776;42.636;24.358;2023-07-31T13:22:43;89820.53;;;26.42;38.39
76074;BME280;64776;42.636;24.358;2023-07-31T13:25:45;89823.88;;;26.31;38.51
76074;BME280;64776;42.636;24.358;2023-07-31T13:28:46;89824.88;;;26.16;38.35
76074;BME280;64776;42.636;24.358;2023-07-31T13:31:47;89824.44;;;26.39;39.08
76074;BME280;64776;42.636;24.358;2023-07-31T13:34:49;89831.44;;;26.71;40.02
76074;BME280;64776;42.636;24.358;2023-07-31T13:37:50;89820.81;;;27.05;39.09
76074;BME280;64776;42.636;24.358;2023-07-31T13:40:51;89826.47;;;27.28;40.29
76074;BME280;64776;42.636;24.358;2023-07-31T13:43:51;89821.22;;;27.42;38.72
76074;BME280;64776;42.636;24.358;2023-07-31T13:46:52;89829.03;;;27.05;38.63
76074;BME280;64776;42.636;24.358;2023-07-31T13:49:54;89831.00;;;26.55;39.89
76074;BME280;64776;42.636;24.358;2023-07-31T13:52:55;89835.81;;;25.78;41.67
76074;BME280;64776;42.636;24.358;2023-07-31T13:55:56;89841.66;;;25.55;42.29
76074;BME280;64776;42.636;24.358;2023-07-31T13:58:57;89844.19;;;25.34;43.06
76074;BME280;64776;42.636;24.358;2023-07-31T14:01:58;89840.34;;;25.01;43.74
76074;BME280;64776;42.636;24.358;2023-07-31T14:05:00;89838.69;;;24.88;44.25
76074;BME280;64776;42.636;24.358;2023-07-31T14:08:01;89842.53;;;24.76;44.69
76074;BME280;64776;42.636;24.358;2023-07-31T14:11:02;89845.09;;;25.10;44.93
76074;BME280;64776;42.636;24.358;2023-07-31T14:14:03;89845.53;;;25.07;44.27
76074;BME280;64776;42.636;24.358;2023-07-31T14:17:04;89851.94;;;25.28;43.62
76074;BME280;64776;42.636;24.358;2023-07-31T14:20:08;89843.25;;;25.68;42.60
76074;BME280;64776;42.636;24.358;2023-07-31T14:23:09;89851.00;;;25.62;43.03
76074;BME280;64776;42.636;24.358;2023-07-31T14:26:10;89859.22;;;25.62;43.76
76074;BME280;64776;42.636;24.358;2023-07-31T14:29:11;89855.34;;;25.65;42.63
76074;BME280;64776;42.636;24.358;2023-07-31T14:32:12;89849.88;;;25.74;43.16
76074;BME280;64776;42.636;24.358;2023-07-31T14:35:14;89863.22;;;25.51;43.52
76074;BME280;64776;42.636;24.358;2023-07-31T14:38:15;89858.81;;;26.04;42.23
76074;BME280;64776;42.636;24.358;2023-07-31T14:41:15;89846.88;;;26.47;40.53
76074;BME280;64776;42.636;24.358;2023-07-31T14:44:16;89851.78;;;26.20;41.20
76074;BME280;64776;42.636;24.358;2023-07-31T14:47:17;89846.88;;;26.28;40.79
76074;BME280;64776;42.636;24.358;2023-07-31T14:50:20;89849.31;;;26.52;40.65
76074;BME280;64776;42.636;24.358;2023-07-31T14:53:21;89857.06;;;26.66;40.09
76074;BME280;64776;42.636;24.358;2023-07-31T14:56:22;89858.56;;;26.19;40.53
76074;BME280;64776;42.636;24.358;2023-07-31T14:59:22;89860.88;;;25.38;41.98
76074;BME280;64776;42.636;24.358;2023-07-31T15:02:25;89866.28;;;24.66;44.23
76074;BME280;64776;42.636;24.358;2023-07-31T15:05:27;89873.47;;;24.44;45.28
76074;BME280;64776;42.636;24.358;2023-07-31T15:08:28;89865.47;;;23.95;46.76
76074;BME280;64776;42.636;24.358;2023-07-31T15:11:29;89868.94;;;23.61;47.76
76074;BME280;64776;42.636;24.358;2023-07-31T15:14:29;89867.09;;;23.64;47.91
76074;BME280;64776;42.636;24.358;2023-07-31T15:17:30;89867.19;;;23.73;48.16
76074;BME280;64776;42.636;24.358;2023-07-31T15:20:32;89861.56;;;24.22;46.73
76074;BME280;64776;42.636;24.358;2023-07-31T15:23:33;89857.34;;;24.56;44.93
76074;BME280;64776;42.636;24.358;2023-07-31T15:26:34;89862.06;;;24.55;45.29
76074;BME280;64776;42.636;24.358;2023-07-31T15:29:35;89868.81;;;24.10;45.41
76074;BME280;64776;42.636;24.358;2023-07-31T15:32:37;89872.31;;;23.86;46.20
76074;BME280;64776;42.636;24.358;2023-07-31T15:35:39;89878.94;;;23.93;46.83
76074;BME280;64776;42.636;24.358;2023-07-31T15:38:40;89865.00;;;23.89;46.39
76074;BME280;64776;42.636;24.358;2023-07-31T15:41:41;89854.59;;;24.29;46.78
76074;BME280;64776;42.636;24.358;2023-07-31T15:44:42;89858.84;;;24.05;46.13
76074;BME280;64776;42.636;24.358;2023-07-31T15:47:42;89860.75;;;23.78;46.72
76074;BME280;64776;42.636;24.358;2023-07-31T15:50:44;89858.19;;;23.97;46.02